createdAt,value
2023-04-24T00:02:58.501Z,18.50
2023-04-24T00:08:01.148Z,17.60
2023-04-24T00:13:03.311Z,18.90
2023-04-24T00:18:05.431Z,18.20
2023-04-24T00:23:07.724Z,17.80
2023-04-24T00:28:09.791Z,17.40
2023-04-24T00:33:11.676Z,17.80
2023-04-24T00:38:13.971Z,17.40
2023-04-24T00:43:18.260Z,16.60
2023-04-24T00:48:21.520Z,15.00
2023-04-24T00:53:23.448Z,14.20
2023-04-24T00:58:26.147Z,15.30
2023-04-24T01:03:32.808Z,14.00
2023-04-24T01:08:36.253Z,14.50
2023-04-24T01:13:39.618Z,14.50
2023-04-24T01:18:42.216Z,13.60
2023-04-24T01:23:47.271Z,12.80
2023-04-24T01:28:49.278Z,13.80
2023-04-24T01:33:52.294Z,13.30
2023-04-24T01:38:54.771Z,14.30
2023-04-24T01:43:59.301Z,13.20
2023-04-24T01:49:02.880Z,13.20
2023-04-24T01:54:04.726Z,12.40
2023-04-24T01:59:08.451Z,13.80
2023-04-24T02:04:10.472Z,12.20
2023-04-24T02:09:12.675Z,12.10
2023-04-24T02:14:15.326Z,12.50
2023-04-24T02:19:17.472Z,11.90
2023-04-24T02:24:19.321Z,12.40
2023-04-24T02:29:21.399Z,12.20
2023-04-24T02:34:25.100Z,12.30
2023-04-24T02:39:27.506Z,13.50
2023-04-24T02:44:29.869Z,12.50
2023-04-24T02:49:31.977Z,13.00
2023-04-24T02:54:33.854Z,13.60
2023-04-24T02:59:36.373Z,13.40
2023-04-24T03:04:38.474Z,12.90
2023-04-24T03:09:41.217Z,12.30
2023-04-24T03:14:44.085Z,12.50
2023-04-24T03:19:46.107Z,13.10
2023-04-24T03:24:48.448Z,12.80
2023-04-24T03:29:56.215Z,12.80
2023-04-24T03:35:01.839Z,12.60
2023-04-24T03:40:05.590Z,11.90
2023-04-24T03:45:10.819Z,11.90
2023-04-24T03:50:14.648Z,11.20
2023-04-24T03:55:17.432Z,11.50
2023-04-24T04:00:22.183Z,11.80
2023-04-24T04:05:28.026Z,11.00
2023-04-24T04:10:30.271Z,11.60
2023-04-24T04:15:33.075Z,10.90
2023-04-24T04:20:35.502Z,11.60
2023-04-24T04:25:37.570Z,13.40
2023-04-24T04:30:41.231Z,14.10
2023-04-24T04:35:44.780Z,13.70
2023-04-24T04:40:48.159Z,11.90
2023-04-24T04:45:52.855Z,11.60
2023-04-24T04:51:07.015Z,10.70
2023-04-24T04:56:09.105Z,10.70
2023-04-24T05:01:16.174Z,10.60
2023-04-24T05:06:23.801Z,10.50
2023-04-24T05:11:26.869Z,11.60
2023-04-24T05:16:32.260Z,10.50
2023-04-24T05:21:35.371Z,10.40
2023-04-24T05:26:37.439Z,11.50
2023-04-24T05:31:39.998Z,10.50
2023-04-24T05:36:42.204Z,10.80
2023-04-24T05:41:45.123Z,10.00
2023-04-24T05:46:47.127Z,9.60
2023-04-24T05:51:49.805Z,9.10
2023-04-24T05:56:52.536Z,8.90
2023-04-24T06:02:03.132Z,8.50
2023-04-24T06:07:05.766Z,7.80
2023-04-24T06:12:09.364Z,8.70
2023-04-24T06:17:25.300Z,7.60
2023-04-24T06:22:27.557Z,7.60
2023-04-24T06:27:29.487Z,5.50
2023-04-24T06:32:32.236Z,3.90
2023-04-24T06:37:35.326Z,3.60
2023-04-24T06:42:38.167Z,3.80
2023-04-24T06:47:43.792Z,4.00
2023-04-24T06:52:49.606Z,3.70
2023-04-24T06:57:51.535Z,3.60
2023-04-24T07:02:54.516Z,4.10
2023-04-24T07:07:56.616Z,4.20
2023-04-24T07:12:58.746Z,4.00
2023-04-24T07:18:03.339Z,4.60
2023-04-24T07:23:06.896Z,4.50
2023-04-24T07:28:09.041Z,4.90
2023-04-24T07:33:14.225Z,4.60
2023-04-24T07:38:16.411Z,4.50
2023-04-24T07:43:21.428Z,4.50
2023-04-24T07:48:23.552Z,4.40
2023-04-24T07:53:25.995Z,4.60
2023-04-24T07:58:27.946Z,4.80
2023-04-24T08:03:30.261Z,4.60
2023-04-24T08:08:32.394Z,4.80
2023-04-24T08:13:34.393Z,4.80
2023-04-24T08:18:37.135Z,4.80
2023-04-24T08:23:39.490Z,4.20
2023-04-24T08:28:41.386Z,4.20
2023-04-24T08:33:46.183Z,4.60
2023-04-24T08:38:48.320Z,5.00
2023-04-24T08:43:51.876Z,4.60
2023-04-24T08:48:54.304Z,4.30
2023-04-24T08:53:57.148Z,4.50
2023-04-24T08:58:59.088Z,4.50
2023-04-24T09:04:05.331Z,4.70
2023-04-24T09:09:09.274Z,4.90
2023-04-24T09:14:12.189Z,5.10
2023-04-24T09:19:14.381Z,5.40
2023-04-24T09:24:23.568Z,5.40
2023-04-24T09:34:28.578Z,5.10
2023-04-24T09:39:30.432Z,5.40
2023-04-24T09:44:35.742Z,6.00
2023-04-24T09:49:40.301Z,7.10
2023-04-24T09:54:42.437Z,5.50
2023-04-24T09:59:46.922Z,5.60
2023-04-24T10:04:57.797Z,5.10
2023-04-24T10:10:00.813Z,4.90
2023-04-24T10:15:04.058Z,5.00
2023-04-24T10:20:07.727Z,5.40
2023-04-24T10:25:11.216Z,5.50
2023-04-24T10:30:14.863Z,5.00
2023-04-24T10:35:19.477Z,5.50
2023-04-24T10:40:28.330Z,6.10
2023-04-24T10:45:30.685Z,5.40
2023-04-24T10:50:53.278Z,5.80
2023-04-24T10:56:04.638Z,5.50
2023-04-24T11:01:07.233Z,4.90
2023-04-24T11:06:10.190Z,5.30
2023-04-24T11:11:14.586Z,4.70
2023-04-24T11:16:23.283Z,5.20
2023-04-24T11:21:26.124Z,5.20
2023-04-24T11:26:33.630Z,5.20
2023-04-24T11:31:37.228Z,5.20
2023-04-24T11:36:39.829Z,4.90
2023-04-24T11:41:42.153Z,4.70
2023-04-24T11:46:44.162Z,4.90
2023-04-24T11:51:53.166Z,5.00
2023-04-24T11:56:57.504Z,4.80
2023-04-24T12:01:59.484Z,5.20
2023-04-24T12:07:06.118Z,5.30
2023-04-24T12:12:07.985Z,5.00
2023-04-24T12:17:09.988Z,4.30
2023-04-24T12:22:12.256Z,4.60
2023-04-24T12:27:21.592Z,4.40
2023-04-24T12:32:23.839Z,4.90
2023-04-24T12:37:27.484Z,4.50
2023-04-24T12:42:31.846Z,4.10
2023-04-24T12:47:36.650Z,4.10
2023-04-24T12:52:39.991Z,4.20
2023-04-24T12:57:42.053Z,4.00
2023-04-24T13:02:44.345Z,4.10
2023-04-24T13:07:46.660Z,4.40
2023-04-24T13:12:48.504Z,3.90
2023-04-24T13:17:51.534Z,4.00
2023-04-24T13:22:54.373Z,5.70
2023-04-24T13:27:56.721Z,4.80
2023-04-24T13:32:58.718Z,4.70
2023-04-24T13:38:02.582Z,4.40
2023-04-24T13:43:04.597Z,4.60
2023-04-24T13:48:06.894Z,4.40
2023-04-24T13:53:09.101Z,3.80
2023-04-24T13:58:11.559Z,4.40
2023-04-24T14:03:13.629Z,4.60
2023-04-24T14:08:15.865Z,4.60
2023-04-24T14:13:18.442Z,4.90
2023-04-24T14:18:21.214Z,4.80
2023-04-24T14:23:23.095Z,4.60
2023-04-24T14:28:25.722Z,4.90
2023-04-24T14:33:27.524Z,4.60
2023-04-24T14:38:31.023Z,4.70
2023-04-24T14:43:33.807Z,4.20
2023-04-24T14:48:36.398Z,4.20
2023-04-24T14:53:38.345Z,3.90
2023-04-24T14:58:40.494Z,3.90
2023-04-24T15:03:42.704Z,3.40
2023-04-24T15:08:46.916Z,3.90
2023-04-24T15:13:50.970Z,4.30
2023-04-24T15:18:53.807Z,3.70
2023-04-24T15:23:57.061Z,3.90
2023-04-24T15:28:59.215Z,4.00
2023-04-24T15:34:01.096Z,4.10
2023-04-24T15:39:05.673Z,4.40
2023-04-24T15:44:09.388Z,5.20
2023-04-24T15:49:11.903Z,5.50
2023-04-24T15:54:14.633Z,5.60
2023-04-24T15:59:18.306Z,6.00
2023-04-24T16:04:20.369Z,6.40
2023-04-24T16:09:22.516Z,6.00
2023-04-24T16:14:25.601Z,6.80
2023-04-24T16:19:28.966Z,7.90
2023-04-24T16:24:31.230Z,7.30
2023-04-24T16:29:33.566Z,8.00
2023-04-24T16:34:35.353Z,8.00
2023-04-24T16:39:38.883Z,8.40
2023-04-24T16:44:42.094Z,8.30
2023-04-24T16:49:44.337Z,9.10
2023-04-24T16:54:46.237Z,9.80
2023-04-24T16:59:48.235Z,9.60
2023-04-24T17:04:50.066Z,9.10
2023-04-24T17:09:52.673Z,9.10
2023-04-24T17:14:54.490Z,9.10
2023-04-24T17:19:56.685Z,9.90
2023-04-24T17:24:58.817Z,10.20
2023-04-24T17:30:01.251Z,10.50
2023-04-24T17:35:03.638Z,10.70
2023-04-24T17:40:07.371Z,11.50
2023-04-24T17:45:10.096Z,12.30
2023-04-24T17:50:12.612Z,13.60
2023-04-24T17:55:15.068Z,14.40
2023-04-24T18:00:17.417Z,12.10
2023-04-24T18:05:19.258Z,18.20
2023-04-24T18:10:21.929Z,22.60
2023-04-24T18:15:24.543Z,21.00
2023-04-24T18:20:27.756Z,19.30
2023-04-24T18:25:29.928Z,18.60
2023-04-24T18:30:32.575Z,18.60
2023-04-24T18:35:34.438Z,19.20
2023-04-24T18:40:36.936Z,17.80
2023-04-24T18:45:38.910Z,17.70
2023-04-24T18:50:41.378Z,17.70
2023-04-24T18:55:43.452Z,18.60
2023-04-24T19:00:46.098Z,17.80
2023-04-24T19:05:48.066Z,19.20
2023-04-24T19:10:51.140Z,16.80
2023-04-24T19:15:53.069Z,17.50
2023-04-24T19:20:56.190Z,17.30
2023-04-24T19:25:58.154Z,15.40
2023-04-24T19:31:00.695Z,17.60
2023-04-24T19:36:02.779Z,17.40
2023-04-24T19:41:05.038Z,15.70
2023-04-24T19:46:07.037Z,16.60
2023-04-24T19:51:09.126Z,22.00
2023-04-24T19:56:11.108Z,15.20
2023-04-24T20:01:13.526Z,16.90
2023-04-24T20:06:15.501Z,16.70
2023-04-24T20:11:17.630Z,11.20
2023-04-24T20:16:19.575Z,9.00
2023-04-24T20:21:22.003Z,6.90
2023-04-24T20:26:23.961Z,6.30
2023-04-24T20:31:26.119Z,5.30
2023-04-24T20:36:28.649Z,6.00
2023-04-24T20:41:30.926Z,6.60
2023-04-24T20:46:33.576Z,5.80
2023-04-24T20:51:37.366Z,5.50
2023-04-24T20:56:39.539Z,5.00
2023-04-24T21:01:44.252Z,5.40
2023-04-24T21:06:47.947Z,5.70
2023-04-24T21:11:52.778Z,6.30
2023-04-24T21:16:58.514Z,6.70
2023-04-24T21:22:01.220Z,7.40
2023-04-24T21:27:03.630Z,7.70
2023-04-24T21:32:05.796Z,8.60
2023-04-24T21:37:07.654Z,8.40
2023-04-24T21:42:29.631Z,8.70
2023-04-24T21:47:38.832Z,8.60
2023-04-24T21:52:42.641Z,7.50
2023-04-24T21:57:44.933Z,7.40
2023-04-24T22:02:47.226Z,7.70
2023-04-24T22:07:50.797Z,7.70
2023-04-24T22:12:53.026Z,7.70
2023-04-24T22:17:54.773Z,8.30
2023-04-24T22:22:57.332Z,8.00
2023-04-24T22:27:59.419Z,7.70
2023-04-24T22:33:01.597Z,7.80
2023-04-24T22:38:04.106Z,7.20
2023-04-24T22:43:06.599Z,6.60
2023-04-24T22:48:08.572Z,6.80
2023-04-24T22:53:10.868Z,5.90
2023-04-24T22:58:12.828Z,6.30
2023-04-24T23:03:15.029Z,6.90
2023-04-24T23:08:17.397Z,6.80
2023-04-24T23:13:44.507Z,7.40
2023-04-24T23:18:46.974Z,7.90
2023-04-24T23:23:51.429Z,9.90
2023-04-24T23:28:53.637Z,10.10
2023-04-24T23:33:55.702Z,10.20
2023-04-24T23:38:59.775Z,10.40
2023-04-24T23:44:03.686Z,10.30
2023-04-24T23:49:07.530Z,10.50
2023-04-24T23:54:10.213Z,11.00
2023-04-24T23:59:12.413Z,10.10
